Time;durP1;ratioP1;P1;durP2;ratioP2;P2;SDS_P1;SDS_P2;PMS_P1;PMS_P2;Temp;Humidity;BMP_temperature;BMP_pressure;BME280_temperature;BME280_humidity;BME280_pressure;Samples;Min_cycle;Max_cycle;Signal;HPM_P1;HPM_P2
2022/10/06 00:00:48;;;;;;;10.07;2.40;;;;;;;12.45;88.75;102143.06;5049221;28;20451;-85
2022/10/06 00:03:14;;;;;;;8.27;1.80;;;;;;;12.49;90.02;102173.00;5063806;28;20389;-77
2022/10/06 00:05:40;;;;;;;9.77;1.70;;;;;;;12.51;89.52;102179.94;5049186;28;20112;-77
2022/10/06 00:08:06;;;;;;;6.28;1.63;;;;;;;12.47;90.66;102180.31;5049046;28;20053;-78
2022/10/06 00:10:32;;;;;;;11.93;2.00;;;;;;;12.52;91.18;102189.66;5047425;28;20118;-77
2022/10/06 00:12:57;;;;;;;9.52;1.40;;;;;;;12.56;90.64;102195.59;5049416;28;20120;-77
2022/10/06 00:15:26;;;;;;;16.30;2.78;;;;;;;12.62;91.60;102195.13;5048584;28;20037;-78
2022/10/06 00:17:52;;;;;;;11.98;2.42;;;;;;;12.61;91.66;102212.09;5052882;28;20445;-77
2022/10/06 00:20:18;;;;;;;12.23;1.95;;;;;;;12.64;90.52;102211.03;5053172;28;20089;-78
2022/10/06 00:22:46;;;;;;;7.90;1.60;;;;;;;12.56;89.04;102213.44;5052832;28;20036;-79
2022/10/06 00:25:14;;;;;;;9.68;1.77;;;;;;;12.56;87.26;102224.97;5053091;28;20044;-77
2022/10/06 00:27:46;;;;;;;14.80;1.80;;;;;;;12.50;88.20;102238.78;5051008;28;20036;-76
2022/10/06 00:30:14;;;;;;;14.73;2.25;;;;;;;12.54;87.14;102234.94;5052757;28;20138;-77
2022/10/06 00:32:39;;;;;;;9.30;1.98;;;;;;;12.48;87.34;102246.06;5051754;28;20036;-76
2022/10/06 00:35:06;;;;;;;13.00;2.10;;;;;;;12.52;85.04;102234.19;5051479;28;20029;-79
2022/10/06 00:37:37;;;;;;;9.00;1.73;;;;;;;12.60;85.04;102242.47;5052829;28;20029;-77
2022/10/06 00:40:08;;;;;;;9.80;2.25;;;;;;;12.59;85.51;102240.75;5053021;28;20187;-77
2022/10/06 00:42:47;;;;;;;12.13;2.00;;;;;;;12.58;86.18;102259.56;5052995;28;20162;-79
2022/10/06 00:45:13;;;;;;;12.30;2.08;;;;;;;12.50;86.48;102260.16;5051049;28;20104;-76
2022/10/06 00:47:39;;;;;;;9.07;1.80;;;;;;;12.47;85.60;102263.06;5052286;28;20128;-79
2022/10/06 00:50:05;;;;;;;12.68;2.05;;;;;;;12.46;86.14;102282.69;5051091;28;20503;-78
2022/10/06 00:52:31;;;;;;;10.43;2.20;;;;;;;12.43;87.09;102290.94;5052574;28;20095;-77
2022/10/06 00:54:58;;;;;;;8.93;1.63;;;;;;;12.42;86.36;102292.78;5052185;28;20037;-78
2022/10/06 00:57:25;;;;;;;9.68;2.60;;;;;;;12.39;87.73;102287.66;5052243;28;20029;-77
2022/10/06 00:59:51;;;;;;;21.00;2.10;;;;;;;12.38;88.06;102301.13;5050282;28;20071;-80
2022/10/06 01:02:30;;;;;;;16.15;2.83;;;;;;;12.38;86.77;102309.13;5052351;28;20064;-79
2022/10/06 01:04:59;;;;;;;8.27;1.98;;;;;;;12.34;85.45;102293.31;5051909;28;20045;-77
2022/10/06 01:07:27;;;;;;;9.55;1.83;;;;;;;12.27;85.26;102304.56;5067002;28;20036;-79
2022/10/06 01:09:54;;;;;;;11.48;1.88;;;;;;;12.22;84.92;102315.59;5051853;28;20055;-79
2022/10/06 01:12:20;;;;;;;3.95;1.38;;;;;;;12.25;82.67;102307.34;5051894;28;20433;-80
2022/10/06 01:14:47;;;;;;;10.07;1.85;;;;;;;12.21;83.16;102318.38;5033962;28;20036;-79
2022/10/06 01:17:27;;;;;;;10.88;1.60;;;;;;;12.13;83.77;102337.63;5051737;28;20063;-79
2022/10/06 01:19:59;;;;;;;8.00;1.63;;;;;;;12.07;84.62;102328.25;5051933;28;20129;-77
2022/10/06 01:22:31;;;;;;;17.85;2.50;;;;;;;11.99;86.94;102335.97;5050786;28;20303;-78
2022/10/06 01:24:57;;;;;;;11.27;1.88;;;;;;;11.93;87.73;102333.75;5051970;28;20025;-82
2022/10/06 01:27:26;;;;;;;10.18;1.60;;;;;;;11.98;87.47;102328.94;5051451;28;20037;-81
2022/10/06 01:29:53;;;;;;;12.95;2.00;;;;;;;11.98;88.44;102348.44;5051508;28;20059;-79
2022/10/06 01:32:20;;;;;;;16.08;1.92;;;;;;;11.94;89.48;102356.78;5050194;28;20366;-78
2022/10/06 01:34:46;;;;;;;12.25;1.77;;;;;;;11.96;88.59;102358.38;5050171;28;20119;-79
2022/10/06 01:37:11;;;;;;;12.35;1.65;;;;;;;11.95;88.95;102364.66;5051921;28;20432;-72
2022/10/06 01:39:37;;;;;;;7.20;1.60;;;;;;;11.92;89.96;102362.19;5054035;28;20033;-70
2022/10/06 01:42:02;;;;;;;16.70;1.85;;;;;;;11.96;88.62;102370.88;5055675;28;20041;-70
2022/10/06 01:44:28;;;;;;;15.35;2.10;;;;;;;11.96;88.75;102365.53;5055164;28;20033;-70
2022/10/06 01:46:53;;;;;;;13.25;2.10;;;;;;;12.02;88.24;102366.91;5055049;28;20465;-71
2022/10/06 01:49:18;;;;;;;15.57;2.13;;;;;;;12.08;88.41;102374.47;5055122;28;20044;-70
2022/10/06 01:51:47;;;;;;;8.73;1.80;;;;;;;12.17;88.96;102377.31;5054623;28;20468;-71
2022/10/06 01:54:13;;;;;;;11.30;1.95;;;;;;;12.20;89.42;102383.41;5054327;28;20041;-71
2022/10/06 01:56:38;;;;;;;15.65;2.17;;;;;;;12.20;89.62;102383.41;5054986;28;20523;-70
2022/10/06 01:59:03;;;;;;;10.75;1.60;;;;;;;12.19;89.34;102368.34;5055285;28;20126;-70
2022/10/06 02:01:29;;;;;;;19.70;3.08;;;;;;;12.16;90.13;102374.75;5054947;28;20473;-70
2022/10/06 02:03:54;;;;;;;16.45;2.67;;;;;;;12.15;90.06;102375.72;5054248;28;20087;-70
2022/10/06 02:06:20;;;;;;;13.45;2.03;;;;;;;12.17;90.10;102384.47;5055339;28;20029;-71
2022/10/06 02:08:45;;;;;;;11.80;2.08;;;;;;;12.17;91.40;102379.97;5055017;28;20025;-71
2022/10/06 02:11:11;;;;;;;11.82;2.67;;;;;;;12.15;91.30;102381.91;5054831;28;20029;-71
2022/10/06 02:13:37;;;;;;;15.07;3.10;;;;;;;12.11;91.36;102387.59;5054558;28;20029;-71
2022/10/06 02:16:05;;;;;;;14.05;2.10;;;;;;;12.11;90.66;102391.09;5054736;28;20041;-71
2022/10/06 02:18:31;;;;;;;10.15;2.13;;;;;;;12.16;89.77;102399.59;5053239;28;20033;-70
2022/10/06 02:20:56;;;;;;;10.00;1.95;;;;;;;12.17;90.81;102405.81;5054459;28;20041;-71
2022/10/06 02:23:22;;;;;;;8.10;1.90;;;;;;;12.16;90.81;102415.63;5070126;28;20036;-71
2022/10/06 02:25:47;;;;;;;10.45;1.77;;;;;;;12.13;91.49;102415.84;5054369;28;20044;-71
2022/10/06 02:28:15;;;;;;;9.05;1.73;;;;;;;12.14;91.72;102417.56;5054635;28;20090;-71
2022/10/06 02:30:40;;;;;;;6.43;1.55;;;;;;;12.13;91.89;102415.00;5054105;28;20041;-70
2022/10/06 02:33:06;;;;;;;14.45;2.47;;;;;;;12.14;91.43;102419.38;5069958;28;20107;-70
2022/10/06 02:35:31;;;;;;;20.13;1.60;;;;;;;12.10;91.43;102424.06;5054534;28;20462;-70
2022/10/06 02:37:57;;;;;;;9.68;1.80;;;;;;;12.14;88.28;102425.56;5069464;28;20516;-71
2022/10/06 02:40:22;;;;;;;7.95;1.67;;;;;;;12.10;89.13;102426.75;5052791;28;20365;-71
2022/10/06 02:42:48;;;;;;;12.68;2.85;;;;;;;12.04;89.78;102426.34;5052719;28;20389;-72
2022/10/06 02:45:14;;;;;;;12.23;2.58;;;;;;;11.95;90.09;102446.53;5053894;28;20080;-71
2022/10/06 02:47:40;;;;;;;12.27;1.90;;;;;;;11.92;88.04;102444.03;5053944;28;20037;-71
2022/10/06 02:50:06;;;;;;;15.27;2.25;;;;;;;11.91;88.15;102455.66;5053752;28;20472;-71
2022/10/06 02:52:34;;;;;;;11.00;1.98;;;;;;;11.99;88.45;102451.53;5053871;28;20029;-70
2022/10/06 02:55:01;;;;;;;13.70;2.33;;;;;;;12.05;88.86;102454.72;5053764;28;20065;-71
2022/10/06 02:57:26;;;;;;;11.15;1.73;;;;;;;12.06;89.31;102461.75;5053782;28;20515;-71
2022/10/06 02:59:52;;;;;;;12.18;2.85;;;;;;;12.06;89.96;102462.63;5053699;28;20069;-71
2022/10/06 03:02:17;;;;;;;8.82;1.75;;;;;;;12.01;90.89;102463.91;5054588;28;20357;-71
2022/10/06 03:04:43;;;;;;;18.83;2.60;;;;;;;11.92;91.68;102468.88;5053615;28;20057;-71
2022/10/06 03:07:08;;;;;;;11.90;2.20;;;;;;;11.94;92.73;102479.47;5053585;28;20037;-71
2022/10/06 03:09:34;;;;;;;11.40;2.10;;;;;;;11.94;92.74;102484.81;5053612;28;20035;-71
2022/10/06 03:11:59;;;;;;;13.95;2.08;;;;;;;11.91;93.29;102480.53;5053444;28;20041;-70
2022/10/06 03:14:24;;;;;;;17.13;3.25;;;;;;;11.87;94.17;102487.03;5053821;28;20029;-71
2022/10/06 03:16:56;;;;;;;18.33;4.18;;;;;;;11.81;94.04;102490.97;5053535;28;20033;-71
2022/10/06 03:19:21;;;;;;;;;;;;;;;11.73;93.97;102490.66;5054438;28;20061;-71
2022/10/06 03:21:47;;;;;;;12.45;2.13;;;;;;;11.66;93.97;102497.41;5053125;28;20257;-71
2022/10/06 03:24:13;;;;;;;11.48;2.00;;;;;;;11.66;93.33;102502.72;5053296;28;20052;-71
2022/10/06 03:26:41;;;;;;;9.85;1.90;;;;;;;11.71;93.00;102510.41;5053328;28;20041;-71
2022/10/06 03:29:07;;;;;;;13.07;1.90;;;;;;;11.74;92.99;102511.03;5052992;28;20025;-71
2022/10/06 03:31:32;;;;;;;13.40;2.20;;;;;;;11.72;93.35;102512.97;5053448;28;20037;-71
2022/10/06 03:33:58;;;;;;;14.93;2.10;;;;;;;11.67;93.98;102515.06;5053937;28;20036;-72
2022/10/06 03:36:26;;;;;;;13.20;2.80;;;;;;;11.59;94.93;102522.75;5053231;28;20112;-73
2022/10/06 03:38:52;;;;;;;16.90;2.40;;;;;;;11.56;94.29;102530.97;5053190;28;20381;-70
2022/10/06 03:41:20;;;;;;;13.15;1.77;;;;;;;11.56;93.74;102534.47;5053141;28;20477;-71
2022/10/06 03:43:47;;;;;;;20.50;2.30;;;;;;;11.52;93.75;102529.47;5069168;28;20029;-71
2022/10/06 03:46:16;;;;;;;11.25;1.67;;;;;;;11.43;93.96;102538.94;5053120;28;20179;-71
2022/10/06 03:48:41;;;;;;;10.73;1.98;;;;;;;11.39;94.10;102537.41;5053126;28;20040;-71
2022/10/06 03:51:10;;;;;;;10.45;1.50;;;;;;;11.37;94.93;102548.19;5053852;28;20033;-71
2022/10/06 03:53:37;;;;;;;11.38;1.77;;;;;;;11.42;94.91;102547.88;5057252;28;20133;-71
2022/10/06 03:56:03;;;;;;;8.05;1.70;;;;;;;11.35;95.13;102543.94;5072506;28;20366;-69
2022/10/06 03:58:30;;;;;;;11.50;1.95;;;;;;;11.31;95.52;102553.09;5057727;28;20029;-72
2022/10/06 04:01:00;;;;;;;19.42;2.08;;;;;;;11.25;97.25;102568.50;5057172;28;20028;-71
2022/10/06 04:03:25;;;;;;;14.88;1.90;;;;;;;11.27;97.00;102573.72;5072403;28;20033;-72
2022/10/06 04:05:55;;;;;;;9.75;2.10;;;;;;;11.22;97.89;102578.53;5056785;28;20542;-71
2022/10/06 04:08:22;;;;;;;12.60;1.88;;;;;;;11.19;98.30;102576.06;5057450;28;20025;-71
2022/10/06 04:10:48;;;;;;;10.27;1.70;;;;;;;11.16;98.67;102574.44;5056497;28;20477;-70
2022/10/06 04:13:18;;;;;;;12.88;1.92;;;;;;;11.11;98.87;102582.75;5056715;28;20040;-71
2022/10/06 04:15:45;;;;;;;15.10;2.08;;;;;;;11.07;99.81;102585.72;5056515;28;20485;-71
2022/10/06 04:18:11;;;;;;;19.98;2.58;;;;;;;11.09;99.31;102589.13;5057202;28;20081;-71
2022/10/06 04:20:36;;;;;;;8.55;1.45;;;;;;;11.09;99.33;102584.66;5056717;28;20451;-71
2022/10/06 04:23:02;;;;;;;10.18;1.95;;;;;;;11.17;98.43;102594.81;5057171;28;20043;-70
2022/10/06 04:25:28;;;;;;;17.17;2.13;;;;;;;11.20;97.74;102602.59;5056293;28;20025;-71
2022/10/06 04:27:53;;;;;;;13.90;1.85;;;;;;;11.23;97.45;102606.88;5056590;28;20115;-71
2022/10/06 04:30:19;;;;;;;11.55;1.73;;;;;;;11.29;96.03;102602.00;5056475;28;20037;-70
2022/10/06 04:32:44;;;;;;;8.80;1.33;;;;;;;11.31;nan;102609.88;5057192;28;20033;-70
2022/10/06 04:35:10;;;;;;;11.38;2.08;;;;;;;11.26;95.80;102596.88;5056478;28;20389;-71
2022/10/06 04:37:35;;;;;;;11.85;1.90;;;;;;;11.19;97.09;102605.38;5056666;28;20029;-72
2022/10/06 04:40:01;;;;;;;8.68;1.55;;;;;;;11.12;97.02;102607.56;5056403;28;20389;-71
2022/10/06 04:42:28;;;;;;;9.82;2.00;;;;;;;11.03;97.80;102610.81;5056217;28;20101;-72
2022/10/06 04:44:54;;;;;;;7.32;2.15;;;;;;;10.94;98.64;102605.16;5056333;28;20033;-71
2022/10/06 04:47:19;;;;;;;10.48;2.13;;;;;;;10.94;98.40;102609.59;5056735;28;20033;-73
2022/10/06 04:49:44;;;;;;;15.80;2.00;;;;;;;10.94;98.95;102618.47;5056058;28;20037;-70
2022/10/06 04:52:10;;;;;;;13.00;1.63;;;;;;;10.99;98.19;102623.50;5055788;28;20039;-71
2022/10/06 04:54:35;;;;;;;9.82;1.85;;;;;;;11.00;98.60;102619.88;5056321;28;20090;-71
2022/10/06 04:57:01;;;;;;;8.77;2.10;;;;;;;10.95;99.19;102619.31;5055082;28;20041;-71
2022/10/06 05:00:21;;;;;;;16.40;2.30;;;;;;;10.89;100.00;102631.22;5056523;28;20118;-71
2022/10/06 05:02:12;;;;;;;11.80;2.28;;;;;;;10.83;100.00;102636.06;5054675;28;20045;-71
2022/10/06 05:04:38;;;;;;;10.00;2.00;;;;;;;10.82;100.00;102645.84;5055379;28;20106;-71
2022/10/06 05:07:04;;;;;;;14.95;1.90;;;;;;;10.81;100.00;102656.59;5055654;28;20028;-71
2022/10/06 05:09:30;;;;;;;11.07;1.65;;;;;;;10.71;100.00;102659.84;5055837;28;20033;-72
2022/10/06 05:11:55;;;;;;;18.13;2.17;;;;;;;10.64;100.00;102660.31;5055528;28;20377;-71
2022/10/06 05:14:20;;;;;;;15.82;2.08;;;;;;;10.65;100.00;102656.72;5071216;28;20076;-72
2022/10/06 05:16:46;;;;;;;12.57;2.13;;;;;;;10.65;100.00;102659.38;5055742;28;20036;-71
2022/10/06 05:19:11;;;;;;;8.32;1.60;;;;;;;10.74;100.00;102664.13;5056329;28;20029;-71
2022/10/06 05:21:37;;;;;;;7.30;1.80;;;;;;;10.77;100.00;102663.94;5055977;28;20029;-71
2022/10/06 05:24:02;;;;;;;17.20;2.25;;;;;;;10.77;100.00;102667.44;5054435;28;20439;-71
2022/10/06 05:26:29;;;;;;;14.48;2.00;;;;;;;10.72;100.00;102677.53;5055095;28;20037;-71
2022/10/06 05:28:55;;;;;;;10.63;2.00;;;;;;;10.67;100.00;102668.97;5055741;28;20108;-71
2022/10/06 05:31:32;;;;;;;13.23;1.98;;;;;;;10.62;100.00;102672.88;5055324;28;20107;-72
2022/10/06 05:33:59;;;;;;;9.63;2.28;;;;;;;10.58;100.00;102680.19;5056015;28;20447;-71
2022/10/06 05:36:29;;;;;;;11.25;1.67;;;;;;;10.56;100.00;102693.59;5055420;28;20074;-71
2022/10/06 05:38:56;;;;;;;11.82;2.17;;;;;;;10.57;100.00;102691.81;5055311;28;20032;-73
2022/10/06 05:41:24;;;;;;;12.43;1.70;;;;;;;10.54;100.00;102700.81;5055153;28;20052;-72
2022/10/06 05:43:50;;;;;;;17.55;2.30;;;;;;;10.50;100.00;102707.28;5055180;28;20104;-71
2022/10/06 05:46:27;;;;;;;12.88;1.80;;;;;;;10.44;100.00;102712.13;5055122;28;20028;-71
2022/10/06 05:49:02;;;;;;;6.60;1.65;;;;;;;10.42;100.00;102720.22;5055177;28;20033;-72
2022/10/06 05:51:30;;;;;;;19.33;2.30;;;;;;;10.39;100.00;102717.72;5054796;28;20033;-72
2022/10/06 05:53:55;;;;;;;13.55;2.17;;;;;;;10.37;100.00;102719.59;5055080;28;20473;-72
2022/10/06 05:56:23;;;;;;;13.88;2.03;;;;;;;10.39;100.00;102717.72;5054888;28;20090;-72
2022/10/06 05:58:51;;;;;;;14.18;2.58;;;;;;;10.43;100.00;102724.56;5054613;28;20021;-72
2022/10/06 06:01:25;;;;;;;12.73;1.92;;;;;;;10.39;100.00;102726.56;5070582;28;20089;-71
2022/10/06 06:03:58;;;;;;;18.35;2.20;;;;;;;10.39;100.00;102731.03;5054624;28;20083;-72
2022/10/06 06:06:28;;;;;;;12.15;2.10;;;;;;;10.45;100.00;102728.00;5055229;28;20091;-71
2022/10/06 06:08:57;;;;;;;12.20;1.80;;;;;;;10.45;100.00;102725.34;5054716;28;20025;-71
2022/10/06 06:11:26;;;;;;;13.10;1.70;;;;;;;10.40;100.00;102736.25;5054234;28;20317;-71
2022/10/06 06:13:58;;;;;;;7.80;1.75;;;;;;;10.31;100.00;102749.22;5054889;28;20025;-71
2022/10/06 06:16:24;;;;;;;14.55;1.98;;;;;;;10.28;100.00;102744.06;5054723;28;20021;-70
2022/10/06 06:18:50;;;;;;;14.80;1.75;;;;;;;10.29;100.00;102749.31;5054117;28;20033;-72
2022/10/06 06:21:16;;;;;;;17.38;1.80;;;;;;;10.33;100.00;102750.88;5055004;28;20094;-71
2022/10/06 06:23:45;;;;;;;11.85;1.85;;;;;;;10.31;100.00;102759.84;5054564;28;20083;-72
2022/10/06 06:26:16;;;;;;;12.63;2.00;;;;;;;10.30;100.00;102771.44;5054677;28;20377;-72
2022/10/06 06:28:45;;;;;;;6.82;1.38;;;;;;;10.39;100.00;102758.50;5055109;28;20040;-72
2022/10/06 06:31:22;;;;;;;15.20;2.15;;;;;;;10.52;100.00;102766.59;5052808;28;20037;-72
2022/10/06 06:33:50;;;;;;;11.25;1.65;;;;;;;10.61;100.00;102759.84;5070400;28;20461;-72
2022/10/06 06:36:17;;;;;;;9.18;1.67;;;;;;;10.70;100.00;102769.09;5054438;28;20077;-72
2022/10/06 06:38:46;;;;;;;8.98;1.77;;;;;;;10.69;100.00;102770.03;5054578;28;20029;-72
2022/10/06 06:41:17;;;;;;;11.70;1.65;;;;;;;10.68;100.00;102774.50;5054083;28;20032;-71
2022/10/06 06:43:42;;;;;;;10.38;2.10;;;;;;;10.70;100.00;102785.06;5052569;28;20040;-70
2022/10/06 06:46:08;;;;;;;8.63;1.77;;;;;;;10.72;100.00;102783.19;5054422;28;20033;-71
2022/10/06 06:48:36;;;;;;;13.73;2.85;;;;;;;10.76;100.00;102795.34;5055115;28;20037;-73
2022/10/06 06:51:05;;;;;;;14.25;2.50;;;;;;;10.79;100.00;102796.97;5054088;28;20044;-70
2022/10/06 06:53:30;;;;;;;9.73;1.60;;;;;;;10.79;100.00;102795.16;5053647;28;20037;-71
2022/10/06 06:55:56;;;;;;;11.23;1.92;;;;;;;10.83;100.00;102804.69;5053458;28;20047;-72
2022/10/06 06:58:23;;;;;;;11.23;1.80;;;;;;;10.89;100.00;102806.13;5053341;28;20052;-72
2022/10/06 07:00:48;;;;;;;14.70;1.75;;;;;;;10.97;100.00;102814.50;5053247;28;20406;-72
2022/10/06 07:03:15;;;;;;;8.85;2.50;;;;;;;11.09;100.00;102816.44;5068556;28;20120;-71
2022/10/06 07:05:44;;;;;;;13.90;2.05;;;;;;;11.22;100.00;102824.50;5053468;28;20037;-72
2022/10/06 07:08:10;;;;;;;10.77;1.60;;;;;;;11.29;100.00;102831.16;5053615;28;20194;-73
2022/10/06 07:10:36;;;;;;;11.10;1.80;;;;;;;11.36;100.00;102831.66;5053327;28;20464;-73
2022/10/06 07:13:03;;;;;;;10.43;1.85;;;;;;;11.39;100.00;102830.59;5068634;28;20037;-73
2022/10/06 07:26:29;;;;;;;15.52;1.60;;;;;;;11.64;99.20;102845.91;5052512;28;20040;-72
2022/10/06 07:28:58;;;;;;;12.88;2.03;;;;;;;11.74;97.17;102854.19;5052980;28;20473;-72
2022/10/06 07:31:32;;;;;;;13.52;2.08;;;;;;;11.81;96.22;102853.69;5052998;28;20462;-73
2022/10/06 07:33:59;;;;;;;10.73;1.30;;;;;;;11.86;95.16;102850.72;5053195;28;20112;-72
2022/10/06 07:36:24;;;;;;;14.90;1.98;;;;;;;11.91;95.63;102856.63;5052940;28;20039;-72
2022/10/06 07:38:50;;;;;;;11.95;1.90;;;;;;;12.01;95.34;102858.75;5052860;28;20025;-71
2022/10/06 07:41:15;;;;;;;11.43;1.98;;;;;;;12.10;95.18;102864.31;5053181;28;20037;-70
2022/10/06 07:43:40;;;;;;;9.50;2.20;;;;;;;12.24;95.81;102863.44;5053090;28;20032;-72
2022/10/06 07:46:10;;;;;;;15.77;2.25;;;;;;;12.37;94.15;102870.63;5052937;28;20079;-71
2022/10/06 07:48:36;;;;;;;5.65;1.73;;;;;;;12.49;94.24;102877.81;5053157;28;20056;-72
2022/10/06 07:51:05;;;;;;;10.20;1.73;;;;;;;12.69;94.33;102868.50;5052994;28;20033;-72
2022/10/06 07:53:32;;;;;;;6.57;1.30;;;;;;;12.91;92.42;102880.38;5052689;28;20136;-71
2022/10/06 07:56:04;;;;;;;11.60;2.17;;;;;;;13.03;91.32;102885.75;5052418;28;20478;-71
2022/10/06 07:58:29;;;;;;;15.70;2.00;;;;;;;13.19;92.14;102887.34;5052850;28;20043;-71
2022/10/06 08:00:55;;;;;;;8.15;1.70;;;;;;;13.39;89.34;102878.84;5052410;28;20115;-73
2022/10/06 08:03:20;;;;;;;9.90;1.80;;;;;;;13.66;85.68;102893.91;5051696;28;20083;-71
2022/10/06 08:05:48;;;;;;;15.63;1.48;;;;;;;13.77;85.56;102894.94;5050779;28;20100;-72
2022/10/06 08:08:14;;;;;;;10.98;2.58;;;;;;;13.84;80.19;102902.41;5052306;28;20124;-71
2022/10/06 08:10:41;;;;;;;6.50;1.38;;;;;;;13.88;79.87;102906.59;5051252;28;20098;-71
2022/10/06 08:13:07;;;;;;;8.80;2.05;;;;;;;14.04;81.46;102906.31;5052621;28;20549;-72
2022/10/06 08:15:33;;;;;;;11.95;1.90;;;;;;;14.05;79.25;102916.06;5052505;28;20033;-75
2022/10/06 08:18:00;;;;;;;5.50;1.40;;;;;;;14.20;79.29;102914.09;5052413;28;20199;-72
2022/10/06 08:20:26;;;;;;;6.68;1.40;;;;;;;14.75;77.57;102921.69;5052569;28;20040;-73
2022/10/06 08:22:52;;;;;;;8.00;1.60;;;;;;;15.06;73.81;102922.03;5053457;28;20090;-72
2022/10/06 08:25:17;;;;;;;8.93;1.58;;;;;;;15.02;72.35;102936.63;5052547;28;20070;-72
2022/10/06 08:27:43;;;;;;;8.50;1.85;;;;;;;14.87;74.35;102930.63;5052738;28;20037;-72
2022/10/06 08:30:10;;;;;;;12.40;1.33;;;;;;;14.99;76.90;102938.59;5052969;28;20029;-73
2022/10/06 08:32:35;;;;;;;8.45;1.98;;;;;;;15.16;75.54;102939.13;5052668;28;20477;-72
2022/10/06 08:35:01;;;;;;;6.82;1.52;;;;;;;15.47;71.37;102939.44;5068141;28;20140;-72
2022/10/06 08:37:26;;;;;;;9.80;1.90;;;;;;;15.89;68.81;102928.97;5053141;28;20479;-71
2022/10/06 08:39:53;;;;;;;7.07;1.60;;;;;;;16.37;64.73;102933.16;5056335;28;20376;-73
2022/10/06 08:42:30;;;;;;;7.80;1.92;;;;;;;17.01;61.90;102936.84;5056322;28;20119;-72
2022/10/06 08:45:02;;;;;;;8.07;1.60;;;;;;;17.62;56.22;102945.00;5071873;28;20036;-72
2022/10/06 08:47:32;;;;;;;8.40;1.65;;;;;;;18.41;54.31;102940.72;5056317;28;20033;-72
2022/10/06 08:49:59;;;;;;;11.75;2.00;;;;;;;19.51;51.80;102957.53;5055924;28;20466;-74
2022/10/06 08:52:44;;;;;;;8.73;1.85;;;;;;;20.21;47.25;102957.97;5056095;28;20033;-72
2022/10/06 08:55:24;;;;;;;6.60;1.52;;;;;;;20.73;45.33;102962.72;5056482;28;20041;-72
2022/10/06 08:57:52;;;;;;;7.50;1.48;;;;;;;21.28;43.20;102961.66;5055928;28;20486;-72
2022/10/06 09:00:18;;;;;;;15.57;2.10;;;;;;;21.62;42.65;102962.75;5056258;28;20040;-72
2022/10/06 09:02:46;;;;;;;5.30;1.38;;;;;;;21.68;41.44;102967.50;5055494;28;20029;-74
2022/10/06 09:05:18;;;;;;;16.38;1.95;;;;;;;21.82;41.33;102969.59;5055737;28;20115;-72
2022/10/06 09:08:02;;;;;;;13.15;1.60;;;;;;;21.11;42.45;102976.09;5056585;28;20045;-71
2022/10/06 09:11:01;;;;;;;12.55;2.17;;;;;;;20.17;45.98;102971.91;5055422;28;20028;-71
2022/10/06 09:13:28;;;;;;;7.20;1.70;;;;;;;20.44;44.50;102979.16;5055819;28;20036;-72
2022/10/06 09:15:59;;;;;;;7.95;1.90;;;;;;;21.39;42.19;102979.50;5055890;28;20068;-73
2022/10/06 09:18:31;;;;;;;9.95;1.42;;;;;;;21.42;42.25;102971.06;5055576;28;20029;-72
2022/10/06 09:21:09;;;;;;;12.15;2.05;;;;;;;21.96;41.96;102986.25;5055083;28;20469;-73
2022/10/06 09:23:48;;;;;;;20.85;1.90;;;;;;;22.54;40.57;102984.59;5055913;28;20052;-72
2022/10/06 09:26:21;;;;;;;17.70;1.77;;;;;;;21.94;42.08;102982.88;5055838;28;20040;-71
2022/10/06 09:28:47;;;;;;;11.20;2.08;;;;;;;20.56;44.56;102986.03;5055978;28;20021;-72
2022/10/06 09:31:22;;;;;;;10.55;2.15;;;;;;;18.75;48.76;102990.69;5055326;28;20035;-73
2022/10/06 09:33:52;;;;;;;11.73;1.77;;;;;;;17.56;52.02;102990.44;5054190;28;20115;-74
2022/10/06 09:36:17;;;;;;;12.45;1.90;;;;;;;17.61;56.10;102994.41;5055718;28;20024;-72
2022/10/06 09:38:55;;;;;;;5.78;1.73;;;;;;;19.11;50.50;102985.59;5055539;28;20488;-72
2022/10/06 09:41:23;;;;;;;7.25;1.52;;;;;;;20.98;46.10;102987.31;5055271;28;20059;-72
2022/10/06 09:43:55;;;;;;;20.77;2.38;;;;;;;22.39;43.33;102983.56;5055078;28;20025;-74
2022/10/06 09:46:40;;;;;;;9.32;1.70;;;;;;;22.19;42.01;102979.22;5054815;28;20039;-73
2022/10/06 09:49:13;;;;;;;8.30;1.95;;;;;;;22.18;41.86;102999.25;5054652;28;20060;-72
2022/10/06 09:51:38;;;;;;;6.95;1.90;;;;;;;21.91;41.34;102994.88;5054776;28;20032;-72
2022/10/06 09:54:14;;;;;;;9.98;1.63;;;;;;;21.47;42.02;102993.09;5054709;28;20397;-70
2022/10/06 09:56:42;;;;;;;8.35;1.80;;;;;;;21.84;42.54;102997.41;5055355;28;20029;-71
2022/10/06 09:59:20;;;;;;;9.00;1.90;;;;;;;21.93;42.63;102994.72;5070770;28;20349;-71
2022/10/06 10:02:04;;;;;;;11.43;2.28;;;;;;;21.64;42.25;102999.47;5054851;28;20029;-72
2022/10/06 10:04:39;;;;;;;6.82;1.73;;;;;;;20.94;43.72;103004.84;5054521;28;20473;-71
2022/10/06 10:07:23;;;;;;;7.38;2.10;;;;;;;19.76;46.63;103001.09;5055421;28;20056;-71
2022/10/06 10:09:49;;;;;;;9.25;1.77;;;;;;;19.22;46.85;103011.59;5054957;28;20419;-72
2022/10/06 10:12:24;;;;;;;4.93;1.48;;;;;;;18.76;48.25;102997.78;5054856;28;20031;-72
2022/10/06 10:14:55;;;;;;;7.85;1.85;;;;;;;18.09;49.73;102995.69;5054733;28;20025;-78
2022/10/06 10:17:47;;;;;;;10.05;1.73;;;;;;;17.64;52.52;103006.75;5052988;28;20033;-75
2022/10/06 10:20:36;;;;;;;7.32;1.55;;;;;;;17.32;53.22;103007.72;5054834;28;20124;-76
2022/10/06 10:23:06;;;;;;;8.50;1.85;;;;;;;17.03;54.37;103007.47;5053949;28;20048;-74
2022/10/06 10:25:49;;;;;;;11.07;1.95;;;;;;;16.98;56.74;103024.00;5053114;28;20081;-72
2022/10/06 10:28:33;;;;;;;10.27;1.80;;;;;;;16.94;55.07;103022.53;5054569;28;20033;-72
2022/10/06 10:31:21;;;;;;;7.03;1.77;;;;;;;16.85;57.70;103020.59;5053931;28;20033;-73
2022/10/06 10:34:06;;;;;;;5.18;1.40;;;;;;;16.85;57.79;103036.72;5054823;28;20518;-73
2022/10/06 10:36:39;;;;;;;15.38;1.63;;;;;;;16.53;55.14;103038.41;5053012;28;20404;-71
2022/10/06 10:39:13;;;;;;;8.20;1.50;;;;;;;16.33;56.48;103033.78;5054076;28;20048;-72
2022/10/06 10:41:48;;;;;;;11.77;1.80;;;;;;;16.18;58.57;103035.88;5054207;28;20468;-73
2022/10/06 10:44:33;;;;;;;10.93;1.75;;;;;;;16.03;59.56;103027.19;5054081;28;20112;-74
2022/10/06 10:47:13;;;;;;;12.88;1.80;;;;;;;15.86;61.12;103032.06;5054566;28;20091;-74
2022/10/06 10:49:44;;;;;;;12.57;1.85;;;;;;;15.74;61.94;103026.78;5054168;28;20045;-73
2022/10/06 10:52:21;;;;;;;12.10;1.90;;;;;;;15.69;65.49;103027.16;5052171;28;20032;-73
2022/10/06 10:54:55;;;;;;;8.13;1.60;;;;;;;15.61;61.25;103033.09;5053351;28;20033;-73
2022/10/06 10:57:27;;;;;;;9.35;2.13;;;;;;;15.63;62.38;103032.97;5053450;28;20043;-72
2022/10/06 11:00:10;;;;;;;10.07;1.77;;;;;;;15.68;63.31;103034.34;5068538;28;20028;-72
2022/10/06 11:02:38;;;;;;;10.38;2.10;;;;;;;15.70;65.83;103034.22;5053345;28;20099;-72
2022/10/06 11:05:14;;;;;;;7.93;1.92;;;;;;;15.92;65.10;103035.25;5053152;28;20045;-72
2022/10/06 11:07:53;;;;;;;12.25;2.15;;;;;;;16.01;61.81;103039.91;5053636;28;20066;-72
2022/10/06 11:10:22;;;;;;;7.50;1.45;;;;;;;15.97;62.54;103043.78;5053811;28;20029;-72
2022/10/06 11:13:13;;;;;;;8.07;1.67;;;;;;;15.99;63.95;103049.91;5053202;28;20021;-72
2022/10/06 11:15:59;;;;;;;11.88;2.28;;;;;;;16.00;62.17;103059.66;5053800;28;20083;-72
2022/10/06 11:19:06;;;;;;;12.77;1.92;;;;;;;15.69;61.72;103038.75;5053448;28;20032;-72
2022/10/06 11:21:50;;;;;;;11.60;1.70;;;;;;;15.64;62.63;103042.75;5053746;28;20043;-73
2022/10/06 11:24:27;;;;;;;13.93;1.92;;;;;;;15.83;65.75;103040.38;5054027;28;20102;-72
2022/10/06 11:27:05;;;;;;;9.93;2.05;;;;;;;16.13;63.31;103041.59;5053646;28;20029;-73
2022/10/06 11:29:46;;;;;;;7.72;1.77;;;;;;;16.45;62.23;103040.88;5051705;28;20192;-72
2022/10/06 11:32:24;;;;;;;12.75;2.00;;;;;;;16.61;60.59;103032.38;5053140;28;20029;-72
2022/10/06 11:34:50;;;;;;;11.50;2.20;;;;;;;16.34;59.92;103039.03;5053248;28;20465;-71
2022/10/06 11:37:43;;;;;;;9.02;1.92;;;;;;;16.32;60.28;103043.69;5052898;28;20465;-72
2022/10/06 11:40:35;;;;;;;11.63;1.70;;;;;;;16.35;61.66;103054.19;5053376;28;20104;-72